sensor_id;sensor_type;location;lat;lon;timestamp;pressure;altitude;pressure_sealevel;temperature;humidity
61898;BME280;47850;50.274;18.908;2023-06-14T00:02:03;98023.11;;;9.80;84.21
61898;BME280;47850;50.274;18.908;2023-06-14T00:04:30;98022.34;;;9.77;84.55
61898;BME280;47850;50.274;18.908;2023-06-14T00:06:58;98017.88;;;9.75;85.32
61898;BME280;47850;50.274;18.908;2023-06-14T00:09:27;98019.60;;;9.75;85.76
61898;BME280;47850;50.274;18.908;2023-06-14T00:11:54;98021.17;;;9.76;85.34
61898;BME280;47850;50.274;18.908;2023-06-14T00:14:22;98022.88;;;9.73;85.59
61898;BME280;47850;50.274;18.908;2023-06-14T00:16:50;98019.92;;;9.72;85.57
61898;BME280;47850;50.274;18.908;2023-06-14T00:19:20;98019.75;;;9.70;85.75
61898;BME280;47850;50.274;18.908;2023-06-14T00:21:48;98020.85;;;9.70;85.84
61898;BME280;47850;50.274;18.908;2023-06-14T00:24:16;98017.61;;;9.69;85.54
61898;BME280;47850;50.274;18.908;2023-06-14T00:26:44;98019.72;;;9.66;85.53
61898;BME280;47850;50.274;18.908;2023-06-14T00:29:11;98014.83;;;9.64;85.84
61898;BME280;47850;50.274;18.908;2023-06-14T00:31:39;98014.94;;;9.64;85.74
61898;BME280;47850;50.274;18.908;2023-06-14T00:34:07;98016.27;;;9.62;85.63
61898;BME280;47850;50.274;18.908;2023-06-14T00:36:35;98016.40;;;9.60;85.65
61898;BME280;47850;50.274;18.908;2023-06-14T00:39:02;98014.61;;;9.58;85.82
61898;BME280;47850;50.274;18.908;2023-06-14T00:41:31;98009.29;;;9.56;85.79
61898;BME280;47850;50.274;18.908;2023-06-14T00:44:01;98001.82;;;9.53;85.94
61898;BME280;47850;50.274;18.908;2023-06-14T00:46:29;98000.33;;;9.53;86.25
61898;BME280;47850;50.274;18.908;2023-06-14T00:48:58;97995.99;;;9.51;86.22
61898;BME280;47850;50.274;18.908;2023-06-14T00:51:28;97994.26;;;9.49;86.59
61898;BME280;47850;50.274;18.908;2023-06-14T00:53:56;97991.89;;;9.49;86.65
61898;BME280;47850;50.274;18.908;2023-06-14T00:56:24;97986.49;;;9.49;86.41
61898;BME280;47850;50.274;18.908;2023-06-14T00:58:52;97988.88;;;9.48;86.80
61898;BME280;47850;50.274;18.908;2023-06-14T01:01:20;97992.11;;;9.48;86.83
61898;BME280;47850;50.274;18.908;2023-06-14T01:03:49;97994.95;;;9.47;86.55
61898;BME280;47850;50.274;18.908;2023-06-14T01:06:37;98000.86;;;9.44;86.45
61898;BME280;47850;50.274;18.908;2023-06-14T01:09:20;97999.35;;;9.41;86.77
61898;BME280;47850;50.274;18.908;2023-06-14T01:12:05;97998.33;;;9.43;86.83
61898;BME280;47850;50.274;18.908;2023-06-14T01:14:36;97994.24;;;9.45;87.02
61898;BME280;47850;50.274;18.908;2023-06-14T01:17:05;97992.10;;;9.46;86.73
61898;BME280;47850;50.274;18.908;2023-06-14T01:19:43;97987.88;;;9.45;86.81
61898;BME280;47850;50.274;18.908;2023-06-14T01:22:12;97992.90;;;9.47;87.13
61898;BME280;47850;50.274;18.908;2023-06-14T01:24:39;97992.02;;;9.47;87.01
61898;BME280;47850;50.274;18.908;2023-06-14T01:27:13;97992.04;;;9.50;87.24
61898;BME280;47850;50.274;18.908;2023-06-14T01:29:43;97991.50;;;9.51;87.08
61898;BME280;47850;50.274;18.908;2023-06-14T01:32:13;97990.83;;;9.54;87.23
61898;BME280;47850;50.274;18.908;2023-06-14T01:34:41;97991.50;;;9.51;86.97
61898;BME280;47850;50.274;18.908;2023-06-14T01:37:10;97991.27;;;9.50;86.99
61898;BME280;47850;50.274;18.908;2023-06-14T01:39:38;97992.54;;;9.47;86.89
61898;BME280;47850;50.274;18.908;2023-06-14T01:42:07;97996.52;;;9.46;87.07
61898;BME280;47850;50.274;18.908;2023-06-14T01:44:35;97994.27;;;9.46;87.29
61898;BME280;47850;50.274;18.908;2023-06-14T01:47:04;97994.61;;;9.47;87.18
61898;BME280;47850;50.274;18.908;2023-06-14T01:49:34;97997.45;;;9.49;87.29
61898;BME280;47850;50.274;18.908;2023-06-14T01:52:03;97995.88;;;9.49;86.97
61898;BME280;47850;50.274;18.908;2023-06-14T01:54:31;97995.60;;;9.47;86.74
61898;BME280;47850;50.274;18.908;2023-06-14T01:56:58;97993.17;;;9.46;86.58
61898;BME280;47850;50.274;18.908;2023-06-14T01:59:26;97987.66;;;9.42;86.70
61898;BME280;47850;50.274;18.908;2023-06-14T02:01:54;97993.10;;;9.39;86.92
61898;BME280;47850;50.274;18.908;2023-06-14T02:04:22;97992.19;;;9.34;86.80
61898;BME280;47850;50.274;18.908;2023-06-14T02:06:50;97995.54;;;9.30;86.78
61898;BME280;47850;50.274;18.908;2023-06-14T02:09:18;97988.04;;;9.26;87.08
61898;BME280;47850;50.274;18.908;2023-06-14T02:11:46;97989.66;;;9.22;87.24
61898;BME280;47850;50.274;18.908;2023-06-14T02:14:14;97988.11;;;9.18;87.26
61898;BME280;47850;50.274;18.908;2023-06-14T02:16:42;97983.61;;;9.15;87.28
61898;BME280;47850;50.274;18.908;2023-06-14T02:19:17;97989.77;;;9.14;87.04
61898;BME280;47850;50.274;18.908;2023-06-14T02:21:45;97984.23;;;9.16;86.47
61898;BME280;47850;50.274;18.908;2023-06-14T02:24:13;97985.23;;;9.19;86.30
61898;BME280;47850;50.274;18.908;2023-06-14T02:26:41;97987.65;;;9.24;86.17
61898;BME280;47850;50.274;18.908;2023-06-14T02:29:09;97987.41;;;9.29;86.30
61898;BME280;47850;50.274;18.908;2023-06-14T02:31:40;97994.00;;;9.32;85.92
61898;BME280;47850;50.274;18.908;2023-06-14T02:34:08;97994.73;;;9.33;85.68
61898;BME280;47850;50.274;18.908;2023-06-14T02:36:36;97987.34;;;9.37;86.16
61898;BME280;47850;50.274;18.908;2023-06-14T02:39:09;97985.11;;;9.45;86.02
61898;BME280;47850;50.274;18.908;2023-06-14T02:41:38;97987.34;;;9.52;85.94
61898;BME280;47850;50.274;18.908;2023-06-14T02:44:06;97989.09;;;9.60;85.73
61898;BME280;47850;50.274;18.908;2023-06-14T02:46:34;97985.45;;;9.67;85.58
61898;BME280;47850;50.274;18.908;2023-06-14T02:49:02;97988.86;;;9.77;85.75
61898;BME280;47850;50.274;18.908;2023-06-14T02:51:30;97985.85;;;9.84;85.39
61898;BME280;47850;50.274;18.908;2023-06-14T02:53:58;97984.64;;;9.87;85.08
61898;BME280;47850;50.274;18.908;2023-06-14T02:56:26;97984.27;;;9.88;85.06
61898;BME280;47850;50.274;18.908;2023-06-14T02:58:55;97987.23;;;9.87;85.67
61898;BME280;47850;50.274;18.908;2023-06-14T03:01:24;97988.27;;;9.86;85.99
61898;BME280;47850;50.274;18.908;2023-06-14T03:03:53;97991.59;;;9.85;86.06
61898;BME280;47850;50.274;18.908;2023-06-14T03:06:21;97989.06;;;9.86;86.15
61898;BME280;47850;50.274;18.908;2023-06-14T03:08:52;97984.35;;;9.93;86.05
61898;BME280;47850;50.274;18.908;2023-06-14T03:11:22;97983.08;;;9.97;85.75
61898;BME280;47850;50.274;18.908;2023-06-14T03:13:51;97984.94;;;10.00;86.07
61898;BME280;47850;50.274;18.908;2023-06-14T03:16:19;97987.13;;;10.03;85.71
61898;BME280;47850;50.274;18.908;2023-06-14T03:18:52;97984.84;;;10.07;85.74
61898;BME280;47850;50.274;18.908;2023-06-14T03:21:20;97983.11;;;10.12;85.71
61898;BME280;47850;50.274;18.908;2023-06-14T03:23:49;97978.46;;;10.16;85.91
61898;BME280;47850;50.274;18.908;2023-06-14T03:26:17;97982.85;;;10.23;85.78
61898;BME280;47850;50.274;18.908;2023-06-14T03:28:46;97984.77;;;10.30;85.72
61898;BME280;47850;50.274;18.908;2023-06-14T03:31:14;97989.54;;;10.37;85.71
61898;BME280;47850;50.274;18.908;2023-06-14T03:33:42;97990.53;;;10.43;85.76
61898;BME280;47850;50.274;18.908;2023-06-14T03:36:10;97988.51;;;10.49;85.79
61898;BME280;47850;50.274;18.908;2023-06-14T03:38:38;97990.06;;;10.56;85.84
61898;BME280;47850;50.274;18.908;2023-06-14T03:41:06;97990.83;;;10.61;85.93
61898;BME280;47850;50.274;18.908;2023-06-14T03:43:34;97992.09;;;10.69;86.21
61898;BME280;47850;50.274;18.908;2023-06-14T03:46:02;97990.56;;;10.79;86.19
61898;BME280;47850;50.274;18.908;2023-06-14T03:48:32;97992.67;;;10.92;86.28
61898;BME280;47850;50.274;18.908;2023-06-14T03:51:00;97999.30;;;11.04;86.26
61898;BME280;47850;50.274;18.908;2023-06-14T03:53:28;97996.92;;;11.14;86.32
61898;BME280;47850;50.274;18.908;2023-06-14T03:55:57;98000.22;;;11.25;86.14
61898;BME280;47850;50.274;18.908;2023-06-14T03:58:25;97996.45;;;11.35;85.89
61898;BME280;47850;50.274;18.908;2023-06-14T04:00:53;97993.17;;;11.48;86.03
61898;BME280;47850;50.274;18.908;2023-06-14T04:03:20;97987.36;;;11.58;86.52
61898;BME280;47850;50.274;18.908;2023-06-14T04:05:57;97986.13;;;11.73;86.60
61898;BME280;47850;50.274;18.908;2023-06-14T04:08:27;97980.39;;;11.87;86.65
61898;BME280;47850;50.274;18.908;2023-06-14T04:10:55;97985.15;;;12.00;87.03
61898;BME280;47850;50.274;18.908;2023-06-14T04:13:23;97989.61;;;12.09;86.87
61898;BME280;47850;50.274;18.908;2023-06-14T04:15:51;97992.52;;;12.09;86.91
61898;BME280;47850;50.274;18.908;2023-06-14T04:18:19;97993.84;;;12.09;87.12
61898;BME280;47850;50.274;18.908;2023-06-14T04:20:48;97995.70;;;12.09;87.04
61898;BME280;47850;50.274;18.908;2023-06-14T04:23:17;97996.95;;;12.09;86.90
61898;BME280;47850;50.274;18.908;2023-06-14T04:25:49;97996.18;;;12.12;86.94
61898;BME280;47850;50.274;18.908;2023-06-14T04:28:17;97998.66;;;12.17;86.64
61898;BME280;47850;50.274;18.908;2023-06-14T04:30:45;98001.38;;;12.26;86.75
61898;BME280;47850;50.274;18.908;2023-06-14T04:33:14;98000.31;;;12.31;86.49
61898;BME280;47850;50.274;18.908;2023-06-14T04:35:42;97995.45;;;12.35;86.52
61898;BME280;47850;50.274;18.908;2023-06-14T04:38:10;97996.29;;;12.38;86.41
61898;BME280;47850;50.274;18.908;2023-06-14T04:40:38;97994.16;;;12.47;86.43
61898;BME280;47850;50.274;18.908;2023-06-14T04:43:10;97994.27;;;12.60;86.30
61898;BME280;47850;50.274;18.908;2023-06-14T04:45:40;97995.17;;;12.74;86.09
61898;BME280;47850;50.274;18.908;2023-06-14T04:48:12;97995.11;;;12.76;85.85
61898;BME280;47850;50.274;18.908;2023-06-14T04:50:40;98002.98;;;12.75;85.76
61898;BME280;47850;50.274;18.908;2023-06-14T04:53:08;98001.99;;;12.72;85.78
61898;BME280;47850;50.274;18.908;2023-06-14T04:55:38;98000.98;;;12.70;85.88
61898;BME280;47850;50.274;18.908;2023-06-14T04:58:06;98003.43;;;12.66;86.02
61898;BME280;47850;50.274;18.908;2023-06-14T05:00:34;98004.42;;;12.65;86.08
61898;BME280;47850;50.274;18.908;2023-06-14T05:03:01;98006.98;;;12.71;86.24
61898;BME280;47850;50.274;18.908;2023-06-14T05:05:30;98007.29;;;12.80;86.12
61898;BME280;47850;50.274;18.908;2023-06-14T05:07:58;98007.00;;;12.83;85.83
61898;BME280;47850;50.274;18.908;2023-06-14T05:10:26;98007.84;;;12.87;85.85
61898;BME280;47850;50.274;18.908;2023-06-14T05:12:56;98008.89;;;12.88;85.83
61898;BME280;47850;50.274;18.908;2023-06-14T05:15:24;98010.50;;;12.89;85.81
61898;BME280;47850;50.274;18.908;2023-06-14T05:17:53;98009.11;;;12.90;85.52
61898;BME280;47850;50.274;18.908;2023-06-14T05:20:23;98014.99;;;12.91;85.61
61898;BME280;47850;50.274;18.908;2023-06-14T05:22:52;98015.88;;;12.89;85.69
61898;BME280;47850;50.274;18.908;2023-06-14T05:25:22;98016.31;;;12.90;86.01
61898;BME280;47850;50.274;18.908;2023-06-14T05:27:50;98018.90;;;12.90;85.61
61898;BME280;47850;50.274;18.908;2023-06-14T05:30:18;98023.63;;;12.89;85.66
61898;BME280;47850;50.274;18.908;2023-06-14T05:32:46;98024.73;;;12.89;85.54
61898;BME280;47850;50.274;18.908;2023-06-14T05:35:13;98029.42;;;12.89;85.79
61898;BME280;47850;50.274;18.908;2023-06-14T05:37:41;98032.04;;;12.93;85.84
61898;BME280;47850;50.274;18.908;2023-06-14T05:40:10;98029.80;;;12.99;85.75
61898;BME280;47850;50.274;18.908;2023-06-14T05:42:37;98033.20;;;13.07;85.47
61898;BME280;47850;50.274;18.908;2023-06-14T05:45:06;98033.09;;;13.15;85.33
61898;BME280;47850;50.274;18.908;2023-06-14T05:47:34;98035.01;;;13.23;85.09
61898;BME280;47850;50.274;18.908;2023-06-14T05:50:02;98035.80;;;13.31;84.99
61898;BME280;47850;50.274;18.908;2023-06-14T05:52:29;98037.23;;;13.41;84.77
61898;BME280;47850;50.274;18.908;2023-06-14T05:54:57;98034.23;;;13.52;84.23
61898;BME280;47850;50.274;18.908;2023-06-14T05:57:25;98036.23;;;13.70;83.92
61898;BME280;47850;50.274;18.908;2023-06-14T05:59:53;98034.51;;;13.85;83.07
61898;BME280;47850;50.274;18.908;2023-06-14T06:02:21;98037.21;;;13.95;82.75
61898;BME280;47850;50.274;18.908;2023-06-14T06:04:49;98040.25;;;14.05;82.76
61898;BME280;47850;50.274;18.908;2023-06-14T06:07:17;98040.66;;;14.10;82.24
61898;BME280;47850;50.274;18.908;2023-06-14T06:09:45;98036.24;;;14.10;82.08
61898;BME280;47850;50.274;18.908;2023-06-14T06:12:13;98036.52;;;14.06;81.88
61898;BME280;47850;50.274;18.908;2023-06-14T06:14:41;98040.30;;;14.01;81.93
61898;BME280;47850;50.274;18.908;2023-06-14T06:17:09;98044.02;;;13.97;81.78
61898;BME280;47850;50.274;18.908;2023-06-14T06:19:37;98047.14;;;13.93;81.82
61898;BME280;47850;50.274;18.908;2023-06-14T06:22:05;98043.77;;;13.96;81.89
61898;BME280;47850;50.274;18.908;2023-06-14T06:24:33;98045.01;;;13.99;81.50
61898;BME280;47850;50.274;18.908;2023-06-14T06:27:01;98045.55;;;14.03;81.45
61898;BME280;47850;50.274;18.908;2023-06-14T06:29:29;98050.52;;;14.05;81.48
61898;BME280;47850;50.274;18.908;2023-06-14T06:31:57;98051.64;;;14.09;81.32
61898;BME280;47850;50.274;18.908;2023-06-14T06:34:26;98057.45;;;14.11;81.03
61898;BME280;47850;50.274;18.908;2023-06-14T06:36:54;98059.10;;;14.16;80.84
61898;BME280;47850;50.274;18.908;2023-06-14T06:39:22;98064.38;;;14.29;80.51
61898;BME280;47850;50.274;18.908;2023-06-14T06:41:50;98057.99;;;14.41;80.28
61898;BME280;47850;50.274;18.908;2023-06-14T06:44:18;98061.14;;;14.49;79.74
61898;BME280;47850;50.274;18.908;2023-06-14T06:46:46;98063.67;;;14.47;79.50
61898;BME280;47850;50.274;18.908;2023-06-14T06:49:14;98063.25;;;14.46;79.51
61898;BME280;47850;50.274;18.908;2023-06-14T06:51:42;98067.68;;;14.50;79.52
61898;BME280;47850;50.274;18.908;2023-06-14T06:54:13;98067.14;;;14.59;79.05
61898;BME280;47850;50.274;18.908;2023-06-14T06:56:41;98064.39;;;14.64;78.82
61898;BME280;47850;50.274;18.908;2023-06-14T06:59:09;98071.52;;;14.66;78.62
61898;BME280;47850;50.274;18.908;2023-06-14T07:01:37;98070.20;;;14.69;78.61
61898;BME280;47850;50.274;18.908;2023-06-14T07:04:04;98071.83;;;14.74;78.39
61898;BME280;47850;50.274;18.908;2023-06-14T07:06:32;98074.27;;;14.77;78.12
61898;BME280;47850;50.274;18.908;2023-06-14T07:09:00;98074.23;;;14.78;78.28
61898;BME280;47850;50.274;18.908;2023-06-14T07:11:29;98077.41;;;14.80;77.94
61898;BME280;47850;50.274;18.908;2023-06-14T07:13:57;98075.48;;;14.87;77.71
61898;BME280;47850;50.274;18.908;2023-06-14T07:16:24;98077.71;;;15.03;77.47
61898;BME280;47850;50.274;18.908;2023-06-14T07:18:53;98078.41;;;15.24;76.95
61898;BME280;47850;50.274;18.908;2023-06-14T07:21:21;98080.97;;;15.35;76.49
61898;BME280;47850;50.274;18.908;2023-06-14T07:23:49;98083.42;;;15.32;76.11
61898;BME280;47850;50.274;18.908;2023-06-14T07:26:17;98085.56;;;15.27;75.98
61898;BME280;47850;50.274;18.908;2023-06-14T07:28:46;98087.45;;;15.18;76.04
61898;BME280;47850;50.274;18.908;2023-06-14T07:31:15;98088.86;;;15.09;76.24
61898;BME280;47850;50.274;18.908;2023-06-14T07:33:46;98091.73;;;14.99;76.47
61898;BME280;47850;50.274;18.908;2023-06-14T07:36:29;98088.80;;;14.98;76.48
61898;BME280;47850;50.274;18.908;2023-06-14T07:39:42;98093.38;;;15.11;76.28
61898;BME280;47850;50.274;18.908;2023-06-14T07:42:54;98096.41;;;15.21;75.59
61898;BME280;47850;50.274;18.908;2023-06-14T07:45:42;98105.10;;;15.12;75.46
61898;BME280;47850;50.274;18.908;2023-06-14T07:48:26;98105.46;;;15.02;76.18
61898;BME280;47850;50.274;18.908;2023-06-14T07:51:31;98106.14;;;14.95;76.41
61898;BME280;47850;50.274;18.908;2023-06-14T07:54:21;98110.06;;;14.92;76.64
61898;BME280;47850;50.274;18.908;2023-06-14T07:57:15;98111.21;;;14.94;76.65
61898;BME280;47850;50.274;18.908;2023-06-14T08:00:10;98112.56;;;15.01;76.42
61898;BME280;47850;50.274;18.908;2023-06-14T08:03:03;98116.02;;;15.09;76.07
61898;BME280;47850;50.274;18.908;2023-06-14T08:05:49;98114.57;;;15.11;75.77
61898;BME280;47850;50.274;18.908;2023-06-14T08:08:27;98111.06;;;15.09;75.82
61898;BME280;47850;50.274;18.908;2023-06-14T08:11:12;98114.45;;;15.01;75.89
61898;BME280;47850;50.274;18.908;2023-06-14T08:13:48;98115.10;;;14.88;76.44
61898;BME280;47850;50.274;18.908;2023-06-14T08:16:25;98108.03;;;14.81;76.77
61898;BME280;47850;50.274;18.908;2023-06-14T08:19:18;98106.96;;;14.77;76.72
61898;BME280;47850;50.274;18.908;2023-06-14T08:22:07;98109.83;;;14.70;77.21
61898;BME280;47850;50.274;18.908;2023-06-14T08:24:45;98113.93;;;14.59;77.41
61898;BME280;47850;50.274;18.908;2023-06-14T08:27:27;98112.11;;;14.49;77.79
61898;BME280;47850;50.274;18.908;2023-06-14T08:30:19;98115.14;;;14.46;78.27
61898;BME280;47850;50.274;18.908;2023-06-14T08:36:27;98110.62;;;14.61;78.03
61898;BME280;47850;50.274;18.908;2023-06-14T08:39:05;98106.91;;;14.75;78.00
61898;BME280;47850;50.274;18.908;2023-06-14T08:42:02;98110.88;;;14.99;77.74
61898;BME280;47850;50.274;18.908;2023-06-14T08:44:42;98113.58;;;15.09;77.28
61898;BME280;47850;50.274;18.908;2023-06-14T08:47:10;98115.98;;;15.08;77.09
61898;BME280;47850;50.274;18.908;2023-06-14T08:49:40;98118.33;;;15.11;77.32
61898;BME280;47850;50.274;18.908;2023-06-14T08:52:13;98118.27;;;15.14;77.35
61898;BME280;47850;50.274;18.908;2023-06-14T08:54:41;98123.55;;;15.09;77.08
61898;BME280;47850;50.274;18.908;2023-06-14T08:57:11;98123.89;;;15.02;76.67
61898;BME280;47850;50.274;18.908;2023-06-14T08:59:46;98131.80;;;15.01;77.03
61898;BME280;47850;50.274;18.908;2023-06-14T09:02:16;98135.33;;;15.07;76.96
61898;BME280;47850;50.274;18.908;2023-06-14T09:04:49;98134.40;;;15.04;76.93
61898;BME280;47850;50.274;18.908;2023-06-14T09:07:17;98137.17;;;15.03;77.04
61898;BME280;47850;50.274;18.908;2023-06-14T09:09:45;98139.20;;;14.99;76.92
61898;BME280;47850;50.274;18.908;2023-06-14T09:12:14;98141.84;;;14.93;77.15
61898;BME280;47850;50.274;18.908;2023-06-14T09:14:42;98146.77;;;14.87;77.53
61898;BME280;47850;50.274;18.908;2023-06-14T09:17:13;98149.62;;;14.79;77.87
61898;BME280;47850;50.274;18.908;2023-06-14T09:19:41;98150.25;;;14.69;78.75
61898;BME280;47850;50.274;18.908;2023-06-14T09:22:11;98150.52;;;14.57;79.89
61898;BME280;47850;50.274;18.908;2023-06-14T09:24:39;98147.33;;;14.45;80.44
61898;BME280;47850;50.274;18.908;2023-06-14T09:27:15;98146.55;;;14.34;80.69
61898;BME280;47850;50.274;18.908;2023-06-14T09:29:43;98147.40;;;14.27;81.48
61898;BME280;47850;50.274;18.908;2023-06-14T09:32:11;98152.08;;;14.19;81.61
61898;BME280;47850;50.274;18.908;2023-06-14T09:34:39;98149.52;;;14.16;82.12
61898;BME280;47850;50.274;18.908;2023-06-14T09:37:07;98147.45;;;14.21;82.38
61898;BME280;47850;50.274;18.908;2023-06-14T09:39:35;98145.70;;;14.28;83.07
61898;BME280;47850;50.274;18.908;2023-06-14T09:42:16;98144.36;;;14.35;83.57
61898;BME280;47850;50.274;18.908;2023-06-14T09:44:47;98145.44;;;14.40;83.13
61898;BME280;47850;50.274;18.908;2023-06-14T09:47:16;98145.06;;;14.45;83.42
61898;BME280;47850;50.274;18.908;2023-06-14T09:49:44;98143.91;;;14.54;83.12
61898;BME280;47850;50.274;18.908;2023-06-14T09:52:19;98146.20;;;14.68;82.68
61898;BME280;47850;50.274;18.908;2023-06-14T09:54:48;98146.13;;;14.81;82.20
61898;BME280;47850;50.274;18.908;2023-06-14T09:57:23;98150.17;;;14.88;81.74
61898;BME280;47850;50.274;18.908;2023-06-14T09:59:57;98149.33;;;14.88;81.46
61898;BME280;47850;50.274;18.908;2023-06-14T10:02:33;98149.73;;;14.87;81.18
61898;BME280;47850;50.274;18.908;2023-06-14T10:05:07;98155.15;;;14.83;81.10
61898;BME280;47850;50.274;18.908;2023-06-14T10:07:44;98154.75;;;14.83;81.54
61898;BME280;47850;50.274;18.908;2023-06-14T10:10:15;98157.45;;;14.84;80.96
61898;BME280;47850;50.274;18.908;2023-06-14T10:12:43;98154.58;;;14.82;80.67
61898;BME280;47850;50.274;18.908;2023-06-14T10:15:17;98154.48;;;14.82;80.44
61898;BME280;47850;50.274;18.908;2023-06-14T10:18:01;98155.39;;;14.81;81.13
61898;BME280;47850;50.274;18.908;2023-06-14T10:21:16;98157.77;;;14.79;81.55
61898;BME280;47850;50.274;18.908;2023-06-14T10:23:47;98158.20;;;14.80;82.29
61898;BME280;47850;50.274;18.908;2023-06-14T10:26:20;98157.73;;;14.80;81.90
61898;BME280;47850;50.274;18.908;2023-06-14T10:29:08;98158.61;;;14.78;81.63
61898;BME280;47850;50.274;18.908;2023-06-14T10:31:48;98157.55;;;14.85;82.85
61898;BME280;47850;50.274;18.908;2023-06-14T10:37:05;98157.48;;;14.92;81.56
61898;BME280;47850;50.274;18.908;2023-06-14T10:39:42;98153.50;;;15.00;81.42
61898;BME280;47850;50.274;18.908;2023-06-14T10:42:12;98154.88;;;15.10;81.48
61898;BME280;47850;50.274;18.908;2023-06-14T10:44:45;98150.10;;;15.19;81.11
61898;BME280;47850;50.274;18.908;2023-06-14T10:47:25;98147.91;;;15.31;81.00
61898;BME280;47850;50.274;18.908;2023-06-14T10:50:10;98146.34;;;15.55;80.09
61898;BME280;47850;50.274;18.908;2023-06-14T10:52:43;98145.38;;;15.98;79.69
61898;BME280;47850;50.274;18.908;2023-06-14T10:55:12;98144.95;;;16.40;77.14
61898;BME280;47850;50.274;18.908;2023-06-14T10:57:47;98142.77;;;16.85;75.83
61898;BME280;47850;50.274;18.908;2023-06-14T11:00:18;98134.96;;;17.33;74.92
61898;BME280;47850;50.274;18.908;2023-06-14T11:03:23;98133.29;;;17.76;72.99
61898;BME280;47850;50.274;18.908;2023-06-14T11:05:58;98133.59;;;18.14;71.68
61898;BME280;47850;50.274;18.908;2023-06-14T11:11:06;98134.00;;;18.52;69.76
61898;BME280;47850;50.274;18.908;2023-06-14T11:13:37;98131.08;;;18.63;67.80
61898;BME280;47850;50.274;18.908;2023-06-14T11:16:10;98131.78;;;18.63;67.14
61898;BME280;47850;50.274;18.908;2023-06-14T11:18:40;98138.52;;;18.60;67.51
61898;BME280;47850;50.274;18.908;2023-06-14T11:21:08;98131.51;;;18.60;67.11
61898;BME280;47850;50.274;18.908;2023-06-14T11:23:36;98131.39;;;18.58;67.39
61898;BME280;47850;50.274;18.908;2023-06-14T11:26:05;98129.34;;;18.64;67.24
61898;BME280;47850;50.274;18.908;2023-06-14T11:28:39;98125.47;;;18.70;67.13
61898;BME280;47850;50.274;18.908;2023-06-14T11:31:08;98131.09;;;18.84;66.09
61898;BME280;47850;50.274;18.908;2023-06-14T11:33:37;98132.23;;;19.05;65.88
61898;BME280;47850;50.274;18.908;2023-06-14T11:36:06;98131.05;;;19.32;64.72
61898;BME280;47850;50.274;18.908;2023-06-14T11:38:36;98127.94;;;19.64;64.41
61898;BME280;47850;50.274;18.908;2023-06-14T11:41:05;98130.44;;;20.04;62.73
61898;BME280;47850;50.274;18.908;2023-06-14T11:43:36;98134.19;;;20.57;59.71
61898;BME280;47850;50.274;18.908;2023-06-14T11:46:13;98132.14;;;21.05;58.38
61898;BME280;47850;50.274;18.908;2023-06-14T11:48:43;98134.00;;;21.46;58.41
61898;BME280;47850;50.274;18.908;2023-06-14T11:51:10;98134.92;;;21.64;57.33
61898;BME280;47850;50.274;18.908;2023-06-14T11:53:38;98137.52;;;21.55;56.15
61898;BME280;47850;50.274;18.908;2023-06-14T11:56:06;98132.02;;;21.13;55.92
61898;BME280;47850;50.274;18.908;2023-06-14T11:58:35;98135.30;;;20.69;56.45
61898;BME280;47850;50.274;18.908;2023-06-14T12:01:03;98130.34;;;20.23;57.79
61898;BME280;47850;50.274;18.908;2023-06-14T12:03:31;98127.36;;;19.94;58.76
61898;BME280;47850;50.274;18.908;2023-06-14T12:06:07;98126.67;;;19.79;59.80
61898;BME280;47850;50.274;18.908;2023-06-14T12:08:37;98124.45;;;19.61;60.30
61898;BME280;47850;50.274;18.908;2023-06-14T12:11:12;98121.56;;;19.49;61.01
61898;BME280;47850;50.274;18.908;2023-06-14T12:13:42;98123.20;;;19.39;61.11
61898;BME280;47850;50.274;18.908;2023-06-14T12:16:11;98125.39;;;19.29;61.18
61898;BME280;47850;50.274;18.908;2023-06-14T12:18:40;98121.41;;;19.18;61.50
61898;BME280;47850;50.274;18.908;2023-06-14T12:21:09;98119.52;;;19.11;61.31
61898;BME280;47850;50.274;18.908;2023-06-14T12:23:48;98117.46;;;19.03;60.61
61898;BME280;47850;50.274;18.908;2023-06-14T12:26:18;98114.58;;;18.93;60.66
61898;BME280;47850;50.274;18.908;2023-06-14T12:28:47;98113.22;;;18.98;60.19
61898;BME280;47850;50.274;18.908;2023-06-14T12:31:16;98112.70;;;19.02;59.81
61898;BME280;47850;50.274;18.908;2023-06-14T12:33:44;98114.92;;;19.09;59.58
61898;BME280;47850;50.274;18.908;2023-06-14T12:36:13;98110.65;;;19.16;59.02
61898;BME280;47850;50.274;18.908;2023-06-14T12:38:41;98106.71;;;19.25;58.78
61898;BME280;47850;50.274;18.908;2023-06-14T12:41:09;98102.14;;;19.41;58.90
61898;BME280;47850;50.274;18.908;2023-06-14T12:43:37;98101.21;;;19.61;58.84
61898;BME280;47850;50.274;18.908;2023-06-14T12:46:05;98095.89;;;19.83;58.43
61898;BME280;47850;50.274;18.908;2023-06-14T12:48:33;98094.50;;;20.22;57.70
61898;BME280;47850;50.274;18.908;2023-06-14T12:51:04;98100.16;;;20.72;56.41
61898;BME280;47850;50.274;18.908;2023-06-14T12:53:32;98100.02;;;21.16;53.94
61898;BME280;47850;50.274;18.908;2023-06-14T12:56:00;98095.03;;;21.62;52.50
61898;BME280;47850;50.274;18.908;2023-06-14T12:58:28;98091.70;;;22.10;51.08
61898;BME280;47850;50.274;18.908;2023-06-14T13:00:56;98090.66;;;22.53;50.49
61898;BME280;47850;50.274;18.908;2023-06-14T13:03:24;98087.80;;;22.99;49.22
61898;BME280;47850;50.274;18.908;2023-06-14T13:05:52;98090.48;;;23.34;47.66
61898;BME280;47850;50.274;18.908;2023-06-14T13:08:20;98094.16;;;23.74;45.42
61898;BME280;47850;50.274;18.908;2023-06-14T13:10:50;98083.02;;;24.29;44.67
61898;BME280;47850;50.274;18.908;2023-06-14T13:13:21;98089.04;;;24.90;42.40
61898;BME280;47850;50.274;18.908;2023-06-14T13:15:49;98085.12;;;25.27;39.97
61898;BME280;47850;50.274;18.908;2023-06-14T13:18:17;98088.11;;;25.58;40.34
61898;BME280;47850;50.274;18.908;2023-06-14T13:20:46;98082.98;;;26.05;39.97
61898;BME280;47850;50.274;18.908;2023-06-14T13:23:15;98083.71;;;26.31;38.92